Time;durP1;ratioP1;P1;durP2;ratioP2;P2;SDS_P1;SDS_P2;PMS_P1;PMS_P2;Temp;Humidity;BMP_temperature;BMP_pressure;BME280_temperature;BME280_humidity;BME280_pressure;Samples;Min_cycle;Max_cycle;Signal;HPM_P1;HPM_P2
2021/03/05 00:02:11;;;;;;;21.73;14.25;;;22.70;36.70;;;;;;6174153;28;83653;-65
2021/03/05 00:05:12;;;;;;;22.75;14.40;;;22.70;36.90;;;;;;6173311;27;84246;-65
2021/03/05 00:08:12;;;;;;;19.05;13.43;;;22.70;36.90;;;;;;6165143;28;82805;-65
2021/03/05 00:11:13;;;;;;;19.38;13.23;;;22.70;37.00;;;;;;6171852;27;83498;-65
2021/03/05 00:14:13;;;;;;;18.55;13.00;;;22.70;36.80;;;;;;6171570;28;83143;-65
2021/03/05 00:17:14;;;;;;;18.85;13.07;;;22.70;36.90;;;;;;6149311;28;86112;-65
2021/03/05 00:20:14;;;;;;;20.23;14.13;;;22.70;37.30;;;;;;6165614;28;83643;-65
2021/03/05 00:23:15;;;;;;;18.50;12.85;;;22.60;37.50;;;;;;6171780;28;83306;-65
2021/03/05 00:26:16;;;;;;;20.10;13.25;;;22.60;37.30;;;;;;6174790;28;84160;-64
2021/03/05 00:29:16;;;;;;;19.42;12.95;;;22.60;37.90;;;;;;6168055;27;83381;-65
2021/03/05 00:32:17;;;;;;;19.10;13.10;;;22.60;37.50;;;;;;6174309;28;82764;-65
2021/03/05 00:35:17;;;;;;;22.35;13.10;;;22.70;37.70;;;;;;6169144;27;83660;-65
2021/03/05 00:38:18;;;;;;;22.48;13.85;;;22.60;37.40;;;;;;6167202;28;82998;-66
2021/03/05 00:41:18;;;;;;;20.67;13.68;;;22.60;37.70;;;;;;6168869;27;83425;-65
2021/03/05 00:44:20;;;;;;;18.98;13.02;;;22.60;37.60;;;;;;6154650;28;84492;-67
2021/03/05 00:47:21;;;;;;;20.80;13.48;;;22.60;37.70;;;;;;6164489;28;84315;-66
2021/03/05 00:50:21;;;;;;;20.65;13.63;;;22.60;37.70;;;;;;6157565;28;84937;-65
2021/03/05 00:53:23;;;;;;;18.27;13.18;;;22.60;37.60;;;;;;6148982;28;84786;-66
2021/03/05 00:56:23;;;;;;;20.58;13.38;;;22.60;38.20;;;;;;6140464;28;84006;-65
2021/03/05 00:59:24;;;;;;;18.88;12.48;;;22.60;37.60;;;;;;6172266;27;83416;-65
2021/03/05 01:02:25;;;;;;;21.98;13.23;;;22.50;37.70;;;;;;6154209;28;85026;-65
2021/03/05 01:05:27;;;;;;;19.08;12.88;;;22.50;37.40;;;;;;6146812;28;84875;-67
2021/03/05 01:08:27;;;;;;;18.85;13.10;;;22.50;37.50;;;;;;6168075;28;82839;-67
2021/03/05 01:11:28;;;;;;;19.73;12.85;;;22.50;37.20;;;;;;6159563;28;86098;-67
2021/03/05 01:14:28;;;;;;;17.52;12.00;;;22.60;37.20;;;;;;6169202;28;83729;-66
2021/03/05 01:17:29;;;;;;;19.60;12.70;;;22.50;36.90;;;;;;6172453;28;83061;-66
2021/03/05 01:20:29;;;;;;;18.95;12.90;;;22.50;36.60;;;;;;6153894;28;84862;-65
2021/03/05 01:23:30;;;;;;;18.38;12.90;;;22.50;36.60;;;;;;6169696;27;83369;-66
2021/03/05 01:26:31;;;;;;;20.63;13.00;;;22.60;36.30;;;;;;6165990;28;84448;-66
2021/03/05 01:29:31;;;;;;;20.42;13.05;;;22.50;36.30;;;;;;6171847;27;83385;-66
2021/03/05 01:32:32;;;;;;;23.27;13.68;;;22.50;36.10;;;;;;6166756;28;83775;-65
2021/03/05 01:35:32;;;;;;;22.60;13.50;;;22.50;36.30;;;;;;6171119;28;85506;-65
2021/03/05 01:38:33;;;;;;;20.30;13.40;;;22.50;36.20;;;;;;6164176;28;83603;-65
2021/03/05 01:41:33;;;;;;;17.85;12.30;;;22.50;36.30;;;;;;6161771;28;82982;-65
2021/03/05 01:44:34;;;;;;;20.80;14.05;;;22.50;35.90;;;;;;6164396;28;83300;-65
2021/03/05 01:47:34;;;;;;;21.58;13.80;;;22.50;35.80;;;;;;6169456;28;83342;-64
2021/03/05 01:50:35;;;;;;;19.05;13.10;;;22.50;35.70;;;;;;6146886;27;83458;-66
2021/03/05 01:53:35;;;;;;;18.73;12.07;;;22.50;35.90;;;;;;6167037;28;83369;-66
2021/03/05 01:56:36;;;;;;;18.10;12.27;;;22.50;35.90;;;;;;6168304;27;83295;-66
2021/03/05 01:59:36;;;;;;;18.08;12.07;;;22.50;36.40;;;;;;6168046;28;83602;-66
2021/03/05 02:02:37;;;;;;;18.83;11.77;;;22.50;37.20;;;;;;6171865;27;83744;-65
2021/03/05 02:05:38;;;;;;;17.60;11.98;;;22.40;36.10;;;;;;6168201;28;82918;-65
2021/03/05 02:08:38;;;;;;;19.33;11.30;;;22.50;36.00;;;;;;6166512;28;84379;-64
2021/03/05 02:11:39;;;;;;;19.67;12.10;;;22.50;36.50;;;;;;6174213;28;83135;-65
2021/03/05 02:14:39;;;;;;;16.83;11.88;;;22.50;36.30;;;;;;6169183;28;83622;-66
2021/03/05 02:17:40;;;;;;;18.33;11.30;;;22.50;36.30;;;;;;6164351;28;83336;-66
2021/03/05 02:20:40;;;;;;;19.10;11.55;;;22.40;36.30;;;;;;6171826;27;84473;-67
2021/03/05 02:23:41;;;;;;;16.77;11.20;;;22.40;36.40;;;;;;6167325;28;84003;-65
2021/03/05 02:26:52;;;;;;;15.55;10.63;;;22.40;36.00;;;;;;6168372;27;85595;-69
2021/03/05 02:29:53;;;;;;;15.18;10.57;;;22.40;36.20;;;;;;6167613;28;84348;-66
2021/03/05 02:32:53;;;;;;;17.15;10.73;;;22.40;36.30;;;;;;6173851;28;84126;-65
2021/03/05 02:35:54;;;;;;;18.10;10.73;;;22.40;36.30;;;;;;6170029;28;83382;-66
2021/03/05 02:38:54;;;;;;;17.45;11.60;;;22.40;36.20;;;;;;6167227;28;83508;-68
2021/03/05 02:41:55;;;;;;;16.95;11.25;;;22.40;36.10;;;;;;6147582;27;83217;-66
2021/03/05 02:44:55;;;;;;;18.92;11.77;;;22.40;36.30;;;;;;6154816;28;84957;-66
2021/03/05 02:47:56;;;;;;;16.27;10.40;;;22.40;36.30;;;;;;6151398;27;83457;-65
2021/03/05 02:50:57;;;;;;;17.50;11.02;;;22.30;36.10;;;;;;6170539;28;89248;-65
2021/03/05 02:53:57;;;;;;;18.60;11.30;;;22.40;36.50;;;;;;6168971;27;83140;-66
2021/03/05 02:56:58;;;;;;;15.13;10.65;;;22.30;37.30;;;;;;6168353;28;83110;-65
2021/03/05 02:59:58;;;;;;;15.25;10.52;;;22.40;36.50;;;;;;6168735;28;84011;-66
2021/03/05 03:02:59;;;;;;;15.25;9.82;;;22.30;36.60;;;;;;6149581;28;83425;-65
2021/03/05 03:05:59;;;;;;;16.60;10.50;;;22.40;36.60;;;;;;6173171;27;83055;-65
2021/03/05 03:09:00;;;;;;;15.05;10.07;;;22.30;36.70;;;;;;6167869;28;83431;-65
2021/03/05 03:12:00;;;;;;;14.40;9.18;;;22.30;36.20;;;;;;6166188;27;83294;-64
2021/03/05 03:15:01;;;;;;;15.55;9.57;;;22.30;36.30;;;;;;6174522;28;82838;-65
2021/03/05 03:18:01;;;;;;;14.77;10.25;;;22.30;36.40;;;;;;6174871;28;80890;-65
2021/03/05 03:21:02;;;;;;;15.55;9.85;;;22.30;36.30;;;;;;6175144;28;83007;-65
2021/03/05 03:24:02;;;;;;;17.13;10.65;;;22.30;36.20;;;;;;6179203;28;82944;-65
2021/03/05 03:27:03;;;;;;;13.93;9.52;;;22.30;36.40;;;;;;6167920;28;83292;-64
2021/03/05 03:30:03;;;;;;;16.88;9.32;;;22.30;36.50;;;;;;6155925;27;84216;-64
2021/03/05 03:33:04;;;;;;;13.68;8.93;;;22.30;36.40;;;;;;6179377;28;81729;-64
2021/03/05 03:36:04;;;;;;;15.35;9.18;;;22.30;36.00;;;;;;6172232;27;81568;-64
2021/03/05 03:39:05;;;;;;;14.73;8.57;;;22.30;36.40;;;;;;6162837;28;83560;-64
2021/03/05 03:42:05;;;;;;;16.45;9.15;;;22.30;36.20;;;;;;6177663;28;81611;-64
2021/03/05 03:45:06;;;;;;;13.15;8.45;;;22.30;36.40;;;;;;6176488;28;81831;-64
2021/03/05 03:48:07;;;;;;;16.58;9.75;;;22.30;36.20;;;;;;6169983;27;87098;-68
2021/03/05 03:51:07;;;;;;;15.65;8.40;;;22.30;36.00;;;;;;6174245;28;84514;-67
2021/03/05 03:54:08;;;;;;;12.93;8.82;;;22.30;36.30;;;;;;6176713;27;80913;-69
2021/03/05 03:57:08;;;;;;;12.35;8.13;;;22.30;36.10;;;;;;6172376;28;80233;-67
2021/03/05 04:00:09;;;;;;;15.65;8.93;;;22.30;36.40;;;;;;6174521;28;81636;-67
2021/03/05 04:03:12;;;;;;;13.05;8.90;;;22.30;36.20;;;;;;6174152;28;81666;-67
2021/03/05 04:06:12;;;;;;;13.00;8.75;;;22.30;35.90;;;;;;6179928;27;86050;-68
2021/03/05 04:09:13;;;;;;;14.05;9.07;;;22.30;36.30;;;;;;6169673;28;80885;-68
2021/03/05 04:12:13;;;;;;;14.75;8.38;;;22.30;36.30;;;;;;6171876;28;82939;-67
2021/03/05 04:15:14;;;;;;;11.77;6.60;;;22.30;36.90;;;;;;6169625;28;80733;-67
2021/03/05 04:18:14;;;;;;;14.95;7.45;;;22.20;36.00;;;;;;6178902;27;80592;-67
2021/03/05 04:21:15;;;;;;;13.35;7.75;;;22.30;35.50;;;;;;6179780;28;81727;-66
2021/03/05 04:24:15;;;;;;;10.60;7.05;;;22.30;35.20;;;;;;6172022;28;81144;-66
2021/03/05 04:27:16;;;;;;;12.43;7.35;;;22.30;35.40;;;;;;6170002;28;80364;-66
2021/03/05 04:30:17;;;;;;;12.00;7.88;;;22.40;35.20;;;;;;6171743;28;81091;-67
2021/03/05 04:33:17;;;;;;;12.05;7.57;;;22.40;35.20;;;;;;6168531;28;80743;-66
2021/03/05 04:36:18;;;;;;;10.45;7.00;;;22.50;35.20;;;;;;6148777;28;83107;-66
2021/03/05 04:39:18;;;;;;;11.35;6.90;;;22.50;35.10;;;;;;6170164;27;80757;-66
2021/03/05 04:42:19;;;;;;;10.52;7.00;;;22.50;35.10;;;;;;6178446;28;81538;-66
2021/03/05 04:45:19;;;;;;;12.50;7.72;;;22.60;34.90;;;;;;6167650;28;80217;-67
2021/03/05 04:48:20;;;;;;;9.23;6.40;;;22.60;34.60;;;;;;6178822;27;81566;-66
2021/03/05 04:51:20;;;;;;;13.93;7.95;;;22.60;34.40;;;;;;6177450;28;80429;-66
2021/03/05 04:54:21;;;;;;;11.95;7.70;;;22.70;34.30;;;;;;6156456;28;81342;-66
2021/03/05 04:57:21;;;;;;;11.77;6.90;;;22.70;34.00;;;;;;6173822;28;80661;-66
2021/03/05 05:00:22;;;;;;;12.13;7.38;;;22.70;34.00;;;;;;6160529;28;85834;-68
2021/03/05 05:03:22;;;;;;;11.25;7.38;;;22.70;33.80;;;;;;6168592;27;86516;-67
2021/03/05 05:06:23;;;;;;;12.40;7.30;;;22.70;33.80;;;;;;6174991;28;87503;-66
2021/03/05 05:09:24;;;;;;;11.50;7.38;;;22.70;33.60;;;;;;6177052;28;81107;-66
2021/03/05 05:12:24;;;;;;;10.93;6.97;;;22.80;33.60;;;;;;6170885;28;81394;-66
2021/03/05 05:15:25;;;;;;;12.27;7.15;;;22.80;33.60;;;;;;6177232;28;82651;-67
2021/03/05 05:18:25;;;;;;;9.90;6.60;;;22.70;33.50;;;;;;6178068;28;80604;-67
2021/03/05 05:21:26;;;;;;;12.20;7.20;;;22.80;33.50;;;;;;6176811;28;80620;-67
2021/03/05 05:24:26;;;;;;;11.63;7.05;;;22.80;33.50;;;;;;6174681;27;80629;-65
2021/03/05 05:27:27;;;;;;;13.65;7.57;;;22.80;33.40;;;;;;6174111;28;80714;-68
2021/03/05 05:30:27;;;;;;;11.02;6.60;;;22.80;33.40;;;;;;6177260;28;81622;-65
2021/03/05 05:33:28;;;;;;;11.15;6.68;;;22.80;33.40;;;;;;6172288;28;80857;-67
2021/03/05 05:36:28;;;;;;;14.48;6.85;;;22.80;33.70;;;;;;6171598;28;80586;-66
2021/03/05 05:39:29;;;;;;;12.73;7.43;;;22.80;34.00;;;;;;6177604;27;80857;-65
2021/03/05 05:42:29;;;;;;;11.40;6.82;;;22.70;34.00;;;;;;6169080;28;80921;-66
2021/03/05 05:45:30;;;;;;;13.85;7.70;;;22.70;33.60;;;;;;6151353;28;81453;-67
2021/03/05 05:48:30;;;;;;;12.00;7.25;;;22.70;33.60;;;;;;6172407;28;82186;-67
2021/03/05 05:51:31;;;;;;;10.35;6.38;;;22.70;33.60;;;;;;6149749;27;80847;-66
2021/03/05 05:54:31;;;;;;;12.88;7.07;;;22.80;33.90;;;;;;6170185;28;81135;-65
2021/03/05 05:57:32;;;;;;;13.65;6.70;;;22.70;34.20;;;;;;6175857;28;91227;-64
2021/03/05 06:00:32;;;;;;;10.55;6.43;;;22.70;34.10;;;;;;6176039;28;81439;-65
2021/03/05 06:03:33;;;;;;;10.77;6.90;;;22.70;34.30;;;;;;6176074;28;80654;-65
2021/03/05 06:06:33;;;;;;;8.77;6.45;;;22.60;36.30;;;;;;6172581;27;80733;-65
2021/03/05 06:09:34;;;;;;;10.57;6.63;;;22.60;35.10;;;;;;6172896;28;80376;-64
2021/03/05 06:12:35;;;;;;;10.85;6.68;;;22.60;34.50;;;;;;6175014;28;81209;-66
2021/03/05 06:15:35;;;;;;;11.43;5.72;;;22.60;36.20;;;;;;6174088;28;80890;-66
2021/03/05 06:18:36;;;;;;;11.23;5.97;;;22.60;35.60;;;;;;6175980;28;81483;-66
2021/03/05 06:21:36;;;;;;;11.15;5.72;;;22.70;35.50;;;;;;6167898;28;80369;-66
2021/03/05 06:24:37;;;;;;;10.38;5.57;;;22.60;36.50;;;;;;6175981;28;80649;-68
2021/03/05 06:27:37;;;;;;;13.00;5.97;;;22.60;38.70;;;;;;6167273;27;80821;-66
2021/03/05 06:30:38;;;;;;;15.18;5.90;;;22.70;41.80;;;;;;6166909;28;81851;-66
2021/03/05 06:33:38;;;;;;;10.57;5.35;;;22.70;42.60;;;;;;6153686;27;81361;-67
2021/03/05 06:36:39;;;;;;;11.57;6.47;;;22.70;43.40;;;;;;6172788;28;80816;-64
2021/03/05 06:39:40;;;;;;;12.35;7.10;;;22.70;43.70;;;;;;6171354;28;80921;-61
2021/03/05 06:42:40;;;;;;;9.02;5.80;;;22.70;43.90;;;;;;6170466;27;80988;-66
2021/03/05 06:45:41;;;;;;;10.30;5.38;;;22.70;42.00;;;;;;6168026;28;80673;-64
2021/03/05 06:48:41;;;;;;;8.45;5.15;;;22.60;41.00;;;;;;6176070;27;82147;-64
2021/03/05 06:51:42;;;;;;;8.57;5.20;;;22.70;40.60;;;;;;6168751;28;80447;-66
2021/03/05 06:54:42;;;;;;;9.98;5.25;;;22.70;39.60;;;;;;6171127;28;80851;-65
2021/03/05 06:57:43;;;;;;;8.93;4.95;;;22.70;39.50;;;;;;6173647;28;80993;-65
2021/03/05 07:00:43;;;;;;;10.50;5.95;;;22.70;39.20;;;;;;6176375;28;81562;-65
2021/03/05 07:03:44;;;;;;;6.90;4.70;;;22.70;39.00;;;;;;6171699;28;80889;-64
2021/03/05 07:06:45;;;;;;;8.25;4.82;;;22.70;38.90;;;;;;6171208;28;80648;-66
2021/03/05 07:09:45;;;;;;;10.52;5.68;;;22.70;38.90;;;;;;6169882;28;81330;-65
2021/03/05 07:12:46;;;;;;;7.30;4.85;;;22.70;39.20;;;;;;6173237;28;80521;-65
2021/03/05 07:15:46;;;;;;;7.75;4.65;;;22.70;38.80;;;;;;6172360;27;81676;-67
2021/03/05 07:18:47;;;;;;;7.22;4.78;;;22.70;38.60;;;;;;6170754;28;80842;-66
2021/03/05 07:21:47;;;;;;;9.07;4.95;;;22.70;39.00;;;;;;6170566;28;80829;-65
2021/03/05 07:24:48;;;;;;;8.75;4.90;;;22.70;39.60;;;;;;6173828;28;80946;-66
2021/03/05 07:27:48;;;;;;;7.47;5.18;;;22.70;38.40;;;;;;6161595;28;81908;-65
2021/03/05 07:30:49;;;;;;;7.18;4.80;;;22.70;39.00;;;;;;6159275;28;81000;-66
2021/03/05 07:33:49;;;;;;;8.32;5.18;;;22.70;39.30;;;;;;6160061;28;81853;-65
2021/03/05 07:36:50;;;;;;;9.80;5.82;;;22.70;38.40;;;;;;6175260;27;81871;-65
2021/03/05 07:39:50;;;;;;;8.05;5.82;;;22.60;37.60;;;;;;6170571;28;80783;-64
2021/03/05 07:42:51;;;;;;;9.20;5.63;;;22.60;37.30;;;;;;6176221;27;80783;-66
2021/03/05 07:45:52;;;;;;;16.23;5.93;;;22.60;37.10;;;;;;6171934;28;80926;-63
2021/03/05 07:48:52;;;;;;;8.95;5.00;;;22.50;38.00;;;;;;6173076;28;80691;-64
2021/03/05 07:51:54;;;;;;;8.30;5.57;;;22.60;37.80;;;;;;6173163;28;81086;-64
2021/03/05 07:54:55;;;;;;;8.50;5.28;;;22.60;38.60;;;;;;6169929;28;81987;-65
2021/03/05 07:57:55;;;;;;;12.32;8.60;;;22.60;37.20;;;;;;6176563;28;80877;-63
2021/03/05 08:00:56;;;;;;;10.23;6.18;;;22.50;35.60;;;;;;6173423;28;81266;-63
2021/03/05 08:03:56;;;;;;;10.82;5.85;;;22.30;36.40;;;;;;6172064;28;81436;-63
2021/03/05 08:06:57;;;;;;;8.63;5.97;;;22.40;37.70;;;;;;6168490;28;81259;-64
2021/03/05 08:09:58;;;;;;;10.57;5.88;;;22.40;36.80;;;;;;6172316;27;82215;-63
2021/03/05 08:12:58;;;;;;;9.98;5.82;;;22.40;36.80;;;;;;6167488;28;81424;-63
2021/03/05 08:15:59;;;;;;;11.48;5.78;;;22.40;36.60;;;;;;6174437;27;80868;-62
2021/03/05 08:18:59;;;;;;;8.75;5.25;;;22.50;37.90;;;;;;6172835;28;80778;-63
2021/03/05 08:22:03;;;;;;;7.88;4.88;;;22.50;37.20;;;;;;6179377;27;80342;-63
2021/03/05 08:25:03;;;;;;;9.95;5.70;;;22.50;36.80;;;;;;6176407;28;80148;-63
2021/03/05 08:28:04;;;;;;;7.65;5.68;;;22.60;37.90;;;;;;6170797;28;81405;-67
2021/03/05 08:31:04;;;;;;;12.90;5.28;;;22.50;38.10;;;;;;6170266;28;80883;-67
2021/03/05 08:34:05;;;;;;;10.50;6.65;;;22.50;37.40;;;;;;6176519;28;80612;-67
2021/03/05 08:37:05;;;;;;;9.13;5.20;;;22.50;37.30;;;;;;6179282;27;80841;-65
2021/03/05 08:40:06;;;;;;;8.73;5.53;;;22.50;37.50;;;;;;6176697;28;80487;-65
2021/03/05 08:43:06;;;;;;;10.02;6.15;;;22.50;37.20;;;;;;6169673;28;82910;-64
2021/03/05 08:46:07;;;;;;;9.93;5.90;;;22.40;38.20;;;;;;6169509;28;80622;-65
2021/03/05 08:49:07;;;;;;;14.85;5.80;;;22.50;37.90;;;;;;6174642;27;80708;-64
2021/03/05 08:52:08;;;;;;;7.85;5.32;;;22.50;37.50;;;;;;6166557;28;80603;-66
2021/03/05 08:55:09;;;;;;;7.35;4.85;;;22.50;37.80;;;;;;6167650;27;81328;-65
2021/03/05 08:58:09;;;;;;;7.97;4.13;;;22.50;37.90;;;;;;6176369;28;81414;-66
2021/03/05 09:01:10;;;;;;;7.80;4.50;;;22.50;37.70;;;;;;6171046;28;81589;-66
2021/03/05 09:04:10;;;;;;;8.27;5.18;;;22.50;38.90;;;;;;6175603;28;80675;-65
2021/03/05 09:07:12;;;;;;;14.82;5.60;;;22.50;38.40;;;;;;6177252;28;81561;-67
2021/03/05 09:10:12;;;;;;;13.77;6.22;;;22.50;38.90;;;;;;6172291;28;82066;-67
2021/03/05 09:13:13;;;;;;;13.18;6.05;;;22.50;38.40;;;;;;6175878;28;80727;-67
2021/03/05 09:16:14;;;;;;;15.85;6.55;;;22.50;39.00;;;;;;6168920;28;80482;-67
2021/03/05 09:19:14;;;;;;;15.32;6.18;;;22.50;38.60;;;;;;6166616;27;80096;-66
2021/03/05 09:22:15;;;;;;;13.85;5.35;;;22.50;38.60;;;;;;6171738;28;81400;-67
2021/03/05 09:25:15;;;;;;;17.23;6.13;;;22.60;41.50;;;;;;6169836;28;80910;-67
2021/03/05 09:28:16;;;;;;;16.55;5.90;;;22.50;41.80;;;;;;6175094;28;80530;-67
2021/03/05 09:31:17;;;;;;;8.10;5.28;;;22.60;42.20;;;;;;6166131;28;81591;-67
2021/03/05 09:34:17;;;;;;;10.05;4.55;;;22.60;43.00;;;;;;6171690;28;81060;-68
2021/03/05 09:37:18;;;;;;;15.15;4.95;;;22.60;43.90;;;;;;6167156;28;81093;-67
2021/03/05 09:40:18;;;;;;;9.88;4.60;;;22.60;43.70;;;;;;6173842;28;82202;-68
2021/03/05 09:43:19;;;;;;;7.97;4.93;;;22.60;44.00;;;;;;6171609;27;81509;-68
2021/03/05 09:46:20;;;;;;;12.68;5.15;;;22.60;45.30;;;;;;6167710;28;81720;-67
2021/03/05 09:49:20;;;;;;;8.63;4.40;;;22.60;47.20;;;;;;6171325;28;80791;-68
2021/03/05 09:52:21;;;;;;;12.52;4.75;;;22.60;46.20;;;;;;6175366;28;80957;-67
2021/03/05 09:55:21;;;;;;;10.15;4.78;;;22.60;46.40;;;;;;6168624;28;80737;-69
2021/03/05 09:58:22;;;;;;;7.00;4.22;;;22.60;45.60;;;;;;6170603;28;81157;-68
2021/03/05 10:01:22;;;;;;;7.35;3.90;;;22.60;45.20;;;;;;6168135;28;81132;-68
2021/03/05 10:04:23;;;;;;;47.58;17.73;;;22.70;44.20;;;;;;6176000;28;80331;-68
2021/03/05 10:07:23;;;;;;;255.70;95.40;;;22.70;43.60;;;;;;6168785;28;83199;-69
2021/03/05 10:10:24;;;;;;;116.85;48.00;;;22.80;43.10;;;;;;6167080;28;87130;-69
2021/03/05 10:13:25;;;;;;;325.58;123.78;;;22.80;43.20;;;;;;6168424;27;83239;-69
2021/03/05 10:16:25;;;;;;;449.73;176.75;;;22.80;42.20;;;;;;6165606;28;85632;-68
2021/03/05 10:19:26;;;;;;;568.13;243.13;;;22.90;41.60;;;;;;6161896;28;86647;-68
2021/03/05 10:22:26;;;;;;;642.90;282.73;;;23.00;40.80;;;;;;6162148;28;85398;-67
2021/03/05 10:25:27;;;;;;;530.97;213.65;;;23.00;40.60;;;;;;6157935;28;86514;-67
2021/03/05 10:28:27;;;;;;;446.50;177.60;;;23.00;40.30;;;;;;6166927;28;86151;-68
2021/03/05 10:31:28;;;;;;;357.40;138.02;;;23.00;40.30;;;;;;6164869;28;86030;-68
2021/03/05 10:34:29;;;;;;;324.15;123.55;;;23.10;41.60;;;;;;6166888;27;85755;-68
2021/03/05 10:37:29;;;;;;;277.95;108.90;;;23.20;43.70;;;;;;6141114;28;87003;-66
2021/03/05 10:40:30;;;;;;;269.17;109.18;;;23.10;44.60;;;;;;6145526;27;86385;-68
2021/03/05 10:43:30;;;;;;;266.92;106.05;;;23.10;45.60;;;;;;6155162;28;85498;-66
2021/03/05 10:46:31;;;;;;;240.20;97.07;;;23.10;46.20;;;;;;6156636;28;88362;-67
2021/03/05 10:49:32;;;;;;;238.05;94.32;;;23.10;47.00;;;;;;6151302;27;85265;-67
2021/03/05 10:52:32;;;;;;;205.93;87.97;;;23.10;48.00;;;;;;6168668;28;82941;-69
2021/03/05 10:55:33;;;;;;;202.27;82.22;;;23.10;48.80;;;;;;6160903;27;84601;-65
2021/03/05 10:58:33;;;;;;;167.57;71.50;;;23.00;46.90;;;;;;6164949;28;83565;-65
2021/03/05 11:01:34;;;;;;;152.25;65.00;;;23.00;47.60;;;;;;6161450;27;83513;-65
2021/03/05 11:04:34;;;;;;;138.77;60.67;;;22.90;47.10;;;;;;6170950;28;83694;-65
2021/03/05 11:07:35;;;;;;;139.68;59.85;;;22.90;47.20;;;;;;6154244;28;86083;-67
2021/03/05 11:10:36;;;;;;;136.88;57.22;;;22.90;46.10;;;;;;6172674;28;83758;-67
2021/03/05 11:13:36;;;;;;;129.77;53.63;;;22.90;45.40;;;;;;6170094;28;82988;-66
2021/03/05 11:16:37;;;;;;;115.10;47.60;;;22.90;46.00;;;;;;6168927;28;83534;-67
2021/03/05 11:19:37;;;;;;;102.82;42.38;;;22.80;43.30;;;;;;6169668;28;83069;-67
2021/03/05 11:22:38;;;;;;;103.45;43.47;;;22.80;43.10;;;;;;6170718;27;83410;-67
2021/03/05 11:25:38;;;;;;;89.80;38.53;;;22.90;42.70;;;;;;6163867;28;83700;-67
2021/03/05 11:28:39;;;;;;;85.15;35.33;;;22.90;42.70;;;;;;6167968;27;84123;-66
2021/03/05 11:31:40;;;;;;;83.13;33.50;;;22.90;42.50;;;;;;6168778;28;83427;-66
2021/03/05 11:34:40;;;;;;;77.05;33.28;;;22.90;42.10;;;;;;6173773;28;83136;-66
2021/03/05 11:37:41;;;;;;;61.58;25.20;;;22.90;42.10;;;;;;6175613;28;83251;-65
2021/03/05 11:40:41;;;;;;;64.78;26.08;;;22.70;38.60;;;;;;6170754;27;86778;-65
2021/03/05 11:43:42;;;;;;;66.40;26.38;;;22.70;41.80;;;;;;6175439;28;83259;-64
2021/03/05 11:46:42;;;;;;;45.35;21.27;;;22.70;41.50;;;;;;6170957;28;83226;-66
2021/03/05 11:49:43;;;;;;;49.45;21.85;;;22.70;42.50;;;;;;6171216;28;83276;-64
2021/03/05 11:52:44;;;;;;;49.28;21.45;;;22.70;41.30;;;;;;6168176;27;83481;-67
2021/03/05 11:55:44;;;;;;;44.63;19.50;;;22.70;40.20;;;;;;6172018;28;89378;-67
2021/03/05 11:58:45;;;;;;;42.65;19.10;;;22.70;39.60;;;;;;6171550;28;85313;-65
2021/03/05 12:01:45;;;;;;;39.47;18.05;;;22.70;40.70;;;;;;6168008;28;83261;-66
2021/03/05 12:04:46;;;;;;;36.05;16.92;;;22.70;41.00;;;;;;6172036;28;83465;-68
2021/03/05 12:07:47;;;;;;;34.60;15.43;;;22.70;41.00;;;;;;6173044;28;84322;-71
2021/03/05 12:10:47;;;;;;;35.25;15.57;;;22.70;41.20;;;;;;6166029;28;83730;-70
2021/03/05 12:13:48;;;;;;;34.65;14.10;;;22.70;40.40;;;;;;6175337;27;82768;-69
2021/03/05 12:16:48;;;;;;;30.30;14.13;;;22.70;40.50;;;;;;6165908;28;82883;-70
2021/03/05 12:19:49;;;;;;;28.92;12.40;;;22.70;39.50;;;;;;6173129;27;83474;-68
2021/03/05 12:22:49;;;;;;;28.52;12.93;;;22.70;40.00;;;;;;6167368;28;92851;-70
2021/03/05 12:25:50;;;;;;;24.70;12.50;;;22.60;40.00;;;;;;6170101;27;83508;-70
2021/03/05 12:28:50;;;;;;;24.85;11.32;;;22.60;39.40;;;;;;6166603;28;83202;-69
2021/03/05 12:31:51;;;;;;;23.02;10.20;;;22.60;39.10;;;;;;6171020;28;83973;-69
2021/03/05 12:34:52;;;;;;;19.38;9.27;;;22.60;38.80;;;;;;6157038;27;83176;-69
2021/03/05 12:37:52;;;;;;;20.00;9.88;;;22.60;38.00;;;;;;6156451;28;84562;-70
2021/03/05 12:40:53;;;;;;;19.92;9.63;;;22.60;37.70;;;;;;6175929;27;80934;-66
2021/03/05 12:43:53;;;;;;;18.67;8.05;;;22.60;36.90;;;;;;6169342;28;81528;-69
2021/03/05 12:46:54;;;;;;;18.33;8.68;;;22.60;38.60;;;;;;6168101;28;82786;-70
2021/03/05 12:49:55;;;;;;;16.35;8.73;;;22.60;37.20;;;;;;6168703;28;80665;-70
2021/03/05 12:52:55;;;;;;;17.58;8.30;;;22.60;38.40;;;;;;6172634;28;80697;-69
2021/03/05 12:55:56;;;;;;;16.60;7.82;;;22.60;37.90;;;;;;6171315;27;80668;-73
2021/03/05 12:58:56;;;;;;;15.85;7.53;;;22.60;38.40;;;;;;6171479;28;80749;-71
2021/03/05 13:01:57;;;;;;;14.88;7.40;;;22.60;37.30;;;;;;6161378;27;81935;-69
2021/03/05 13:04:58;;;;;;;17.77;7.85;;;22.60;38.10;;;;;;6173300;28;80810;-69
2021/03/05 13:07:58;;;;;;;12.55;7.05;;;22.60;38.70;;;;;;6171707;27;81007;-69
2021/03/05 13:10:59;;;;;;;15.48;7.10;;;22.60;38.70;;;;;;6171539;28;80487;-69
2021/03/05 13:14:00;;;;;;;12.18;6.55;;;22.60;38.20;;;;;;6169681;27;81997;-68
2021/03/05 13:17:00;;;;;;;12.20;6.80;;;22.60;37.70;;;;;;6174911;28;81857;-69
2021/03/05 13:20:01;;;;;;;12.23;6.03;;;22.60;38.40;;;;;;6170284;27;80598;-71
2021/03/05 13:23:01;;;;;;;12.55;6.35;;;22.60;37.90;;;;;;6148639;28;80735;-69
2021/03/05 13:26:09;;;;;;;14.68;6.70;;;22.60;37.70;;;;;;6168398;27;80909;-69
2021/03/05 13:29:09;;;;;;;12.75;6.00;;;22.60;37.30;;;;;;6167790;28;81602;-69
2021/03/05 13:32:10;;;;;;;11.88;6.05;;;22.60;38.00;;;;;;6171156;28;81359;-69
2021/03/05 13:35:11;;;;;;;11.23;5.40;;;22.60;37.10;;;;;;6168316;28;80827;-70
2021/03/05 13:38:11;;;;;;;9.80;5.53;;;22.60;36.60;;;;;;6168589;28;80304;-69
2021/03/05 13:41:12;;;;;;;11.90;6.10;;;22.50;36.80;;;;;;6166575;27;80759;-67
2021/03/05 13:44:12;;;;;;;12.10;5.88;;;22.50;37.10;;;;;;6173389;28;80556;-69
2021/03/05 13:47:13;;;;;;;9.70;5.55;;;22.50;37.10;;;;;;6153911;28;81647;-70
2021/03/05 13:50:13;;;;;;;9.65;5.40;;;22.50;36.80;;;;;;6167840;27;81459;-71
2021/03/05 13:53:14;;;;;;;8.43;4.90;;;22.60;36.10;;;;;;6171404;28;81125;-70
2021/03/05 13:56:14;;;;;;;11.73;5.10;;;22.50;37.30;;;;;;6169521;28;81007;-71
2021/03/05 13:59:15;;;;;;;8.85;4.78;;;22.50;38.00;;;;;;6171345;27;80983;-70
2021/03/05 14:02:16;;;;;;;15.55;5.22;;;22.60;37.20;;;;;;6170530;28;80655;-70
2021/03/05 14:05:16;;;;;;;7.32;4.93;;;22.50;37.90;;;;;;6165164;27;83826;-68
2021/03/05 14:08:17;;;;;;;9.20;5.10;;;22.50;37.70;;;;;;6169732;28;80947;-69
2021/03/05 14:11:17;;;;;;;8.52;4.47;;;22.50;38.20;;;;;;6168329;28;82082;-71
2021/03/05 14:14:18;;;;;;;8.68;4.25;;;22.50;38.20;;;;;;6166859;28;81304;-70
2021/03/05 14:17:18;;;;;;;11.75;5.70;;;22.50;37.50;;;;;;6165945;28;81846;-68
2021/03/05 14:20:19;;;;;;;7.05;4.70;;;22.50;38.30;;;;;;6170453;28;80929;-68
2021/03/05 14:23:22;;;;;;;8.45;4.60;;;22.50;37.00;;;;;;6169808;28;81722;-69
2021/03/05 14:26:22;;;;;;;10.63;4.40;;;22.50;36.90;;;;;;6155494;28;81720;-68
2021/03/05 14:29:23;;;;;;;14.57;7.75;;;22.50;37.50;;;;;;6170595;28;81493;-69
2021/03/05 14:32:23;;;;;;;13.68;8.95;;;22.60;38.20;;;;;;6166384;28;81965;-70
2021/03/05 14:35:24;;;;;;;16.13;10.13;;;22.50;38.80;;;;;;6156510;28;81604;-69
2021/03/05 14:38:25;;;;;;;25.42;15.10;;;22.50;40.50;;;;;;6161591;27;83595;-67
2021/03/05 14:41:25;;;;;;;28.98;16.23;;;22.60;39.10;;;;;;6164167;28;83542;-69
2021/03/05 14:44:26;;;;;;;32.78;19.65;;;22.50;38.50;;;;;;6165297;27;83074;-68
2021/03/05 14:47:27;;;;;;;32.55;18.33;;;22.60;38.10;;;;;;6165782;28;83638;-69
2021/03/05 14:50:27;;;;;;;30.33;17.52;;;22.60;38.30;;;;;;6162217;28;83864;-70
2021/03/05 14:53:29;;;;;;;29.23;17.13;;;22.60;38.60;;;;;;6167729;28;83675;-68
2021/03/05 14:56:30;;;;;;;31.00;17.35;;;22.60;39.00;;;;;;6138525;28;83509;-68
2021/03/05 14:59:30;;;;;;;25.73;14.80;;;22.60;38.30;;;;;;6164832;27;83768;-68
2021/03/05 15:02:32;;;;;;;25.08;14.13;;;22.60;36.80;;;;;;6166139;28;83668;-67
2021/03/05 15:05:33;;;;;;;24.00;12.60;;;22.70;35.90;;;;;;6162688;27;83492;-66
2021/03/05 15:08:33;;;;;;;17.90;11.05;;;22.70;35.40;;;;;;6167575;28;83937;-65
2021/03/05 15:11:34;;;;;;;18.45;11.02;;;22.80;35.60;;;;;;6169749;28;83637;-67
2021/03/05 15:14:35;;;;;;;21.23;10.77;;;22.80;35.20;;;;;;6168139;28;83892;-68
2021/03/05 15:17:35;;;;;;;19.73;10.15;;;22.90;35.10;;;;;;6172180;27;83354;-65
2021/03/05 15:20:36;;;;;;;15.93;9.43;;;22.90;34.90;;;;;;6171042;28;83412;-67
2021/03/05 15:23:36;;;;;;;17.80;10.02;;;23.00;34.80;;;;;;6174838;28;81868;-63